sensor_id;sensor_type;location;lat;lon;timestamp;P1;durP1;ratioP1;P2;durP2;ratioP2
58208;SDS011;44006;52.028;4.696;2022-12-18T00:01:27;149.05;;;42.17;;
58208;SDS011;44006;52.028;4.696;2022-12-18T00:03:55;141.10;;;39.65;;
58208;SDS011;44006;52.028;4.696;2022-12-18T00:06:20;135.43;;;39.90;;
58208;SDS011;44006;52.028;4.696;2022-12-18T00:08:46;134.45;;;40.50;;
58208;SDS011;44006;52.028;4.696;2022-12-18T00:11:12;126.50;;;38.85;;
58208;SDS011;44006;52.028;4.696;2022-12-18T00:13:37;125.15;;;38.88;;
58208;SDS011;44006;52.028;4.696;2022-12-18T00:16:03;127.47;;;40.17;;
58208;SDS011;44006;52.028;4.696;2022-12-18T00:18:28;141.35;;;40.78;;
58208;SDS011;44006;52.028;4.696;2022-12-18T00:20:57;127.30;;;37.80;;
58208;SDS011;44006;52.028;4.696;2022-12-18T00:23:23;121.70;;;37.08;;
58208;SDS011;44006;52.028;4.696;2022-12-18T00:25:48;121.63;;;35.80;;
58208;SDS011;44006;52.028;4.696;2022-12-18T00:28:14;122.43;;;37.13;;
58208;SDS011;44006;52.028;4.696;2022-12-18T00:30:40;117.47;;;35.78;;
58208;SDS011;44006;52.028;4.696;2022-12-18T00:33:06;108.00;;;36.67;;
58208;SDS011;44006;52.028;4.696;2022-12-18T00:35:31;124.15;;;37.95;;
58208;SDS011;44006;52.028;4.696;2022-12-18T00:37:56;123.80;;;37.28;;
58208;SDS011;44006;52.028;4.696;2022-12-18T00:40:21;113.60;;;37.33;;
58208;SDS011;44006;52.028;4.696;2022-12-18T00:42:47;121.90;;;37.40;;
58208;SDS011;44006;52.028;4.696;2022-12-18T00:45:25;127.43;;;40.10;;
58208;SDS011;44006;52.028;4.696;2022-12-18T00:47:50;127.00;;;38.70;;
58208;SDS011;44006;52.028;4.696;2022-12-18T00:50:15;125.78;;;37.92;;
58208;SDS011;44006;52.028;4.696;2022-12-18T00:52:41;128.55;;;38.78;;
58208;SDS011;44006;52.028;4.696;2022-12-18T00:55:06;128.70;;;38.40;;
58208;SDS011;44006;52.028;4.696;2022-12-18T00:57:31;126.85;;;36.55;;
58208;SDS011;44006;52.028;4.696;2022-12-18T00:59:57;118.80;;;37.92;;
58208;SDS011;44006;52.028;4.696;2022-12-18T01:02:22;119.68;;;36.17;;
58208;SDS011;44006;52.028;4.696;2022-12-18T01:04:47;109.13;;;36.33;;
58208;SDS011;44006;52.028;4.696;2022-12-18T01:07:12;114.47;;;35.55;;
58208;SDS011;44006;52.028;4.696;2022-12-18T01:09:39;113.05;;;37.00;;
58208;SDS011;44006;52.028;4.696;2022-12-18T01:12:04;127.50;;;36.47;;
58208;SDS011;44006;52.028;4.696;2022-12-18T01:14:29;103.47;;;37.70;;
58208;SDS011;44006;52.028;4.696;2022-12-18T01:16:54;105.97;;;36.65;;
58208;SDS011;44006;52.028;4.696;2022-12-18T01:19:20;97.47;;;34.08;;
58208;SDS011;44006;52.028;4.696;2022-12-18T01:21:45;112.15;;;34.78;;
58208;SDS011;44006;52.028;4.696;2022-12-18T01:24:11;105.45;;;35.67;;
58208;SDS011;44006;52.028;4.696;2022-12-18T01:26:36;103.18;;;34.40;;
58208;SDS011;44006;52.028;4.696;2022-12-18T01:29:02;105.15;;;35.00;;
58208;SDS011;44006;52.028;4.696;2022-12-18T01:31:28;100.63;;;34.38;;
58208;SDS011;44006;52.028;4.696;2022-12-18T01:33:54;108.60;;;34.70;;
58208;SDS011;44006;52.028;4.696;2022-12-18T01:36:20;104.65;;;35.20;;
58208;SDS011;44006;52.028;4.696;2022-12-18T01:38:46;94.22;;;33.65;;
58208;SDS011;44006;52.028;4.696;2022-12-18T01:41:12;100.07;;;34.55;;
58208;SDS011;44006;52.028;4.696;2022-12-18T01:43:46;94.65;;;34.05;;
58208;SDS011;44006;52.028;4.696;2022-12-18T01:46:11;100.28;;;35.13;;
58208;SDS011;44006;52.028;4.696;2022-12-18T01:48:37;97.55;;;34.92;;
58208;SDS011;44006;52.028;4.696;2022-12-18T01:51:03;100.53;;;34.38;;
58208;SDS011;44006;52.028;4.696;2022-12-18T01:53:29;93.65;;;33.08;;
58208;SDS011;44006;52.028;4.696;2022-12-18T01:55:55;102.57;;;35.03;;
58208;SDS011;44006;52.028;4.696;2022-12-18T01:58:22;90.75;;;32.28;;
58208;SDS011;44006;52.028;4.696;2022-12-18T02:00:49;97.07;;;32.97;;
58208;SDS011;44006;52.028;4.696;2022-12-18T02:03:14;89.28;;;32.40;;
58208;SDS011;44006;52.028;4.696;2022-12-18T02:05:51;90.22;;;32.63;;
58208;SDS011;44006;52.028;4.696;2022-12-18T02:08:22;100.65;;;32.85;;
58208;SDS011;44006;52.028;4.696;2022-12-18T02:13:46;94.95;;;32.55;;
58208;SDS011;44006;52.028;4.696;2022-12-18T02:16:29;95.20;;;33.10;;
58208;SDS011;44006;52.028;4.696;2022-12-18T02:18:58;99.25;;;34.25;;
58208;SDS011;44006;52.028;4.696;2022-12-18T02:26:37;100.82;;;33.45;;
58208;SDS011;44006;52.028;4.696;2022-12-18T02:29:12;94.68;;;33.13;;
58208;SDS011;44006;52.028;4.696;2022-12-18T02:31:52;100.78;;;32.78;;
58208;SDS011;44006;52.028;4.696;2022-12-18T02:34:18;103.22;;;33.08;;
58208;SDS011;44006;52.028;4.696;2022-12-18T02:36:44;106.70;;;33.83;;
58208;SDS011;44006;52.028;4.696;2022-12-18T02:39:11;101.18;;;34.20;;
58208;SDS011;44006;52.028;4.696;2022-12-18T02:41:37;101.97;;;36.35;;
58208;SDS011;44006;52.028;4.696;2022-12-18T02:44:06;96.35;;;33.63;;
58208;SDS011;44006;52.028;4.696;2022-12-18T02:46:34;96.68;;;32.83;;
58208;SDS011;44006;52.028;4.696;2022-12-18T02:49:09;105.82;;;33.97;;
58208;SDS011;44006;52.028;4.696;2022-12-18T02:51:55;101.13;;;33.35;;
58208;SDS011;44006;52.028;4.696;2022-12-18T02:56:51;96.80;;;32.67;;
58208;SDS011;44006;52.028;4.696;2022-12-18T02:59:19;98.32;;;32.97;;
58208;SDS011;44006;52.028;4.696;2022-12-18T03:01:55;90.63;;;31.23;;
58208;SDS011;44006;52.028;4.696;2022-12-18T03:04:38;92.65;;;32.72;;
58208;SDS011;44006;52.028;4.696;2022-12-18T03:07:05;97.03;;;33.17;;
58208;SDS011;44006;52.028;4.696;2022-12-18T03:09:33;86.68;;;32.65;;
58208;SDS011;44006;52.028;4.696;2022-12-18T03:12:02;91.75;;;31.95;;
58208;SDS011;44006;52.028;4.696;2022-12-18T03:14:49;86.13;;;30.52;;
58208;SDS011;44006;52.028;4.696;2022-12-18T03:17:16;96.38;;;32.65;;
58208;SDS011;44006;52.028;4.696;2022-12-18T03:19:43;81.13;;;31.27;;
58208;SDS011;44006;52.028;4.696;2022-12-18T03:22:08;81.28;;;29.48;;
58208;SDS011;44006;52.028;4.696;2022-12-18T03:24:36;87.20;;;31.08;;
58208;SDS011;44006;52.028;4.696;2022-12-18T03:27:04;78.45;;;30.70;;
58208;SDS011;44006;52.028;4.696;2022-12-18T03:29:33;78.43;;;29.38;;
58208;SDS011;44006;52.028;4.696;2022-12-18T03:32:05;87.97;;;32.80;;
58208;SDS011;44006;52.028;4.696;2022-12-18T03:34:33;86.97;;;30.10;;
58208;SDS011;44006;52.028;4.696;2022-12-18T03:36:59;90.15;;;31.17;;
58208;SDS011;44006;52.028;4.696;2022-12-18T03:39:25;83.43;;;30.67;;
58208;SDS011;44006;52.028;4.696;2022-12-18T03:41:52;84.93;;;30.40;;
58208;SDS011;44006;52.028;4.696;2022-12-18T03:44:26;76.60;;;29.65;;
58208;SDS011;44006;52.028;4.696;2022-12-18T03:46:55;79.95;;;30.27;;
58208;SDS011;44006;52.028;4.696;2022-12-18T03:51:50;82.03;;;30.20;;
58208;SDS011;44006;52.028;4.696;2022-12-18T03:54:17;73.90;;;29.98;;
58208;SDS011;44006;52.028;4.696;2022-12-18T03:56:44;85.15;;;31.83;;
58208;SDS011;44006;52.028;4.696;2022-12-18T03:59:11;78.63;;;30.15;;
58208;SDS011;44006;52.028;4.696;2022-12-18T04:01:39;82.78;;;31.08;;
58208;SDS011;44006;52.028;4.696;2022-12-18T04:04:05;73.18;;;31.38;;
58208;SDS011;44006;52.028;4.696;2022-12-18T04:06:35;79.00;;;30.48;;
58208;SDS011;44006;52.028;4.696;2022-12-18T04:09:00;80.05;;;32.22;;
58208;SDS011;44006;52.028;4.696;2022-12-18T04:11:27;80.43;;;30.80;;
58208;SDS011;44006;52.028;4.696;2022-12-18T04:13:55;86.07;;;31.65;;
58208;SDS011;44006;52.028;4.696;2022-12-18T04:16:20;84.28;;;32.15;;
58208;SDS011;44006;52.028;4.696;2022-12-18T04:18:46;91.63;;;32.33;;
58208;SDS011;44006;52.028;4.696;2022-12-18T04:21:11;86.53;;;33.42;;
58208;SDS011;44006;52.028;4.696;2022-12-18T04:23:37;94.75;;;34.75;;
58208;SDS011;44006;52.028;4.696;2022-12-18T04:26:03;94.60;;;33.35;;
58208;SDS011;44006;52.028;4.696;2022-12-18T04:28:28;96.50;;;34.65;;
58208;SDS011;44006;52.028;4.696;2022-12-18T04:30:53;93.63;;;33.97;;
58208;SDS011;44006;52.028;4.696;2022-12-18T04:33:19;92.00;;;33.53;;
58208;SDS011;44006;52.028;4.696;2022-12-18T04:35:45;93.43;;;34.45;;
58208;SDS011;44006;52.028;4.696;2022-12-18T04:38:10;86.68;;;32.42;;
58208;SDS011;44006;52.028;4.696;2022-12-18T04:40:36;84.60;;;32.22;;
58208;SDS011;44006;52.028;4.696;2022-12-18T04:43:01;93.13;;;33.75;;
58208;SDS011;44006;52.028;4.696;2022-12-18T04:45:27;82.95;;;32.55;;
58208;SDS011;44006;52.028;4.696;2022-12-18T04:47:52;86.88;;;32.67;;
58208;SDS011;44006;52.028;4.696;2022-12-18T04:50:17;79.95;;;31.25;;
58208;SDS011;44006;52.028;4.696;2022-12-18T04:52:43;85.68;;;34.13;;
58208;SDS011;44006;52.028;4.696;2022-12-18T04:55:09;78.95;;;31.80;;
58208;SDS011;44006;52.028;4.696;2022-12-18T04:57:34;83.20;;;30.65;;
58208;SDS011;44006;52.028;4.696;2022-12-18T05:00:00;78.22;;;31.83;;
58208;SDS011;44006;52.028;4.696;2022-12-18T05:02:25;80.15;;;30.95;;
58208;SDS011;44006;52.028;4.696;2022-12-18T05:04:50;75.70;;;31.60;;
58208;SDS011;44006;52.028;4.696;2022-12-18T05:07:15;83.95;;;32.13;;
58208;SDS011;44006;52.028;4.696;2022-12-18T05:09:41;80.70;;;31.25;;
58208;SDS011;44006;52.028;4.696;2022-12-18T05:12:06;81.10;;;31.98;;
58208;SDS011;44006;52.028;4.696;2022-12-18T05:14:31;73.45;;;29.75;;
58208;SDS011;44006;52.028;4.696;2022-12-18T05:16:57;82.75;;;31.52;;
58208;SDS011;44006;52.028;4.696;2022-12-18T05:19:23;77.43;;;30.63;;
58208;SDS011;44006;52.028;4.696;2022-12-18T05:21:48;72.80;;;29.60;;
58208;SDS011;44006;52.028;4.696;2022-12-18T05:24:13;70.78;;;29.63;;
58208;SDS011;44006;52.028;4.696;2022-12-18T05:26:39;75.95;;;29.15;;
58208;SDS011;44006;52.028;4.696;2022-12-18T05:29:05;72.20;;;29.15;;
58208;SDS011;44006;52.028;4.696;2022-12-18T05:31:30;74.10;;;30.10;;
58208;SDS011;44006;52.028;4.696;2022-12-18T05:33:55;75.55;;;29.95;;
58208;SDS011;44006;52.028;4.696;2022-12-18T05:36:20;73.45;;;30.00;;
58208;SDS011;44006;52.028;4.696;2022-12-18T05:38:46;71.68;;;28.00;;
58208;SDS011;44006;52.028;4.696;2022-12-18T05:41:12;70.38;;;28.48;;
58208;SDS011;44006;52.028;4.696;2022-12-18T05:43:38;70.28;;;28.73;;
58208;SDS011;44006;52.028;4.696;2022-12-18T05:46:07;74.07;;;28.45;;
58208;SDS011;44006;52.028;4.696;2022-12-18T05:48:33;68.85;;;28.63;;
58208;SDS011;44006;52.028;4.696;2022-12-18T05:51:09;73.35;;;28.67;;
58208;SDS011;44006;52.028;4.696;2022-12-18T05:53:35;71.47;;;28.63;;
58208;SDS011;44006;52.028;4.696;2022-12-18T05:56:01;69.05;;;28.90;;
58208;SDS011;44006;52.028;4.696;2022-12-18T05:58:26;70.68;;;28.10;;
58208;SDS011;44006;52.028;4.696;2022-12-18T06:00:52;71.65;;;28.20;;
58208;SDS011;44006;52.028;4.696;2022-12-18T06:03:17;68.38;;;27.45;;
58208;SDS011;44006;52.028;4.696;2022-12-18T06:05:43;68.30;;;27.88;;
58208;SDS011;44006;52.028;4.696;2022-12-18T06:08:09;63.88;;;26.73;;
58208;SDS011;44006;52.028;4.696;2022-12-18T06:10:35;59.85;;;26.52;;
58208;SDS011;44006;52.028;4.696;2022-12-18T06:13:01;64.45;;;27.10;;
58208;SDS011;44006;52.028;4.696;2022-12-18T06:15:26;62.88;;;25.48;;
58208;SDS011;44006;52.028;4.696;2022-12-18T06:17:52;62.95;;;26.08;;
58208;SDS011;44006;52.028;4.696;2022-12-18T06:20:17;64.20;;;26.38;;
58208;SDS011;44006;52.028;4.696;2022-12-18T06:22:43;65.35;;;27.15;;
58208;SDS011;44006;52.028;4.696;2022-12-18T06:25:08;54.28;;;24.42;;
58208;SDS011;44006;52.028;4.696;2022-12-18T06:27:34;61.20;;;25.52;;
58208;SDS011;44006;52.028;4.696;2022-12-18T06:30:00;57.10;;;25.30;;
58208;SDS011;44006;52.028;4.696;2022-12-18T06:32:25;54.05;;;25.00;;
58208;SDS011;44006;52.028;4.696;2022-12-18T06:34:51;58.25;;;25.35;;
58208;SDS011;44006;52.028;4.696;2022-12-18T06:37:19;54.08;;;24.15;;
58208;SDS011;44006;52.028;4.696;2022-12-18T06:39:44;58.22;;;25.33;;
58208;SDS011;44006;52.028;4.696;2022-12-18T06:42:09;60.58;;;25.10;;
58208;SDS011;44006;52.028;4.696;2022-12-18T06:44:35;60.38;;;24.92;;
58208;SDS011;44006;52.028;4.696;2022-12-18T06:47:00;55.65;;;24.15;;
58208;SDS011;44006;52.028;4.696;2022-12-18T06:49:25;52.53;;;24.10;;
58208;SDS011;44006;52.028;4.696;2022-12-18T06:51:50;54.65;;;24.05;;
58208;SDS011;44006;52.028;4.696;2022-12-18T06:54:17;55.40;;;24.23;;
58208;SDS011;44006;52.028;4.696;2022-12-18T06:56:45;53.65;;;24.17;;
58208;SDS011;44006;52.028;4.696;2022-12-18T06:59:10;50.45;;;23.52;;
58208;SDS011;44006;52.028;4.696;2022-12-18T07:01:35;53.53;;;24.25;;
58208;SDS011;44006;52.028;4.696;2022-12-18T07:04:00;51.55;;;22.92;;
58208;SDS011;44006;52.028;4.696;2022-12-18T07:06:26;53.05;;;23.90;;
58208;SDS011;44006;52.028;4.696;2022-12-18T07:08:52;50.47;;;22.90;;
58208;SDS011;44006;52.028;4.696;2022-12-18T07:11:18;54.33;;;24.30;;
58208;SDS011;44006;52.028;4.696;2022-12-18T07:13:44;51.78;;;24.15;;
58208;SDS011;44006;52.028;4.696;2022-12-18T07:16:10;51.70;;;23.50;;
58208;SDS011;44006;52.028;4.696;2022-12-18T07:18:36;52.03;;;23.90;;
58208;SDS011;44006;52.028;4.696;2022-12-18T07:21:05;52.42;;;24.15;;
58208;SDS011;44006;52.028;4.696;2022-12-18T07:23:31;48.58;;;23.10;;
58208;SDS011;44006;52.028;4.696;2022-12-18T07:26:00;49.05;;;23.20;;
58208;SDS011;44006;52.028;4.696;2022-12-18T07:28:25;52.33;;;23.67;;
58208;SDS011;44006;52.028;4.696;2022-12-18T07:30:52;49.00;;;23.92;;
58208;SDS011;44006;52.028;4.696;2022-12-18T07:33:17;46.33;;;23.73;;
58208;SDS011;44006;52.028;4.696;2022-12-18T07:35:43;53.00;;;24.45;;
58208;SDS011;44006;52.028;4.696;2022-12-18T07:38:09;53.63;;;24.98;;
58208;SDS011;44006;52.028;4.696;2022-12-18T07:40:34;50.53;;;25.33;;
58208;SDS011;44006;52.028;4.696;2022-12-18T07:43:00;54.53;;;24.58;;
58208;SDS011;44006;52.028;4.696;2022-12-18T07:45:25;52.38;;;24.85;;
58208;SDS011;44006;52.028;4.696;2022-12-18T07:47:50;49.28;;;25.58;;
58208;SDS011;44006;52.028;4.696;2022-12-18T07:50:16;49.30;;;25.00;;
58208;SDS011;44006;52.028;4.696;2022-12-18T07:52:42;50.20;;;24.85;;
58208;SDS011;44006;52.028;4.696;2022-12-18T07:55:07;54.15;;;24.95;;
58208;SDS011;44006;52.028;4.696;2022-12-18T07:57:32;53.30;;;28.23;;
58208;SDS011;44006;52.028;4.696;2022-12-18T07:59:58;52.92;;;25.50;;
58208;SDS011;44006;52.028;4.696;2022-12-18T08:02:24;57.75;;;26.55;;
58208;SDS011;44006;52.028;4.696;2022-12-18T08:04:50;53.53;;;26.08;;
58208;SDS011;44006;52.028;4.696;2022-12-18T08:07:15;49.22;;;23.58;;
58208;SDS011;44006;52.028;4.696;2022-12-18T08:09:41;49.20;;;25.50;;
58208;SDS011;44006;52.028;4.696;2022-12-18T08:12:07;52.33;;;24.25;;
58208;SDS011;44006;52.028;4.696;2022-12-18T08:14:32;46.88;;;25.92;;
58208;SDS011;44006;52.028;4.696;2022-12-18T08:16:57;49.78;;;25.70;;
58208;SDS011;44006;52.028;4.696;2022-12-18T08:19:23;50.67;;;25.20;;
58208;SDS011;44006;52.028;4.696;2022-12-18T08:21:48;51.70;;;25.70;;
58208;SDS011;44006;52.028;4.696;2022-12-18T08:24:13;47.53;;;24.52;;
58208;SDS011;44006;52.028;4.696;2022-12-18T08:26:39;45.38;;;24.63;;
58208;SDS011;44006;52.028;4.696;2022-12-18T08:29:04;46.80;;;24.67;;
58208;SDS011;44006;52.028;4.696;2022-12-18T08:31:29;47.85;;;24.25;;
58208;SDS011;44006;52.028;4.696;2022-12-18T08:33:56;45.08;;;24.00;;
58208;SDS011;44006;52.028;4.696;2022-12-18T08:36:22;49.50;;;24.42;;
58208;SDS011;44006;52.028;4.696;2022-12-18T08:38:51;44.58;;;22.95;;
58208;SDS011;44006;52.028;4.696;2022-12-18T08:41:17;45.80;;;22.92;;
58208;SDS011;44006;52.028;4.696;2022-12-18T08:43:43;49.60;;;23.98;;
58208;SDS011;44006;52.028;4.696;2022-12-18T08:46:27;45.38;;;23.73;;
58208;SDS011;44006;52.028;4.696;2022-12-18T08:48:52;52.72;;;24.52;;
58208;SDS011;44006;52.028;4.696;2022-12-18T08:51:18;53.03;;;25.35;;
58208;SDS011;44006;52.028;4.696;2022-12-18T08:53:44;43.75;;;24.08;;
58208;SDS011;44006;52.028;4.696;2022-12-18T08:56:09;44.50;;;25.65;;
58208;SDS011;44006;52.028;4.696;2022-12-18T08:58:35;44.40;;;23.80;;
58208;SDS011;44006;52.028;4.696;2022-12-18T09:01:00;49.60;;;24.90;;
58208;SDS011;44006;52.028;4.696;2022-12-18T09:03:26;49.13;;;23.80;;
58208;SDS011;44006;52.028;4.696;2022-12-18T09:05:52;44.95;;;23.85;;
58208;SDS011;44006;52.028;4.696;2022-12-18T09:08:17;52.05;;;25.02;;
58208;SDS011;44006;52.028;4.696;2022-12-18T09:10:46;45.15;;;24.33;;
58208;SDS011;44006;52.028;4.696;2022-12-18T09:13:12;47.22;;;24.02;;
58208;SDS011;44006;52.028;4.696;2022-12-18T09:15:45;48.05;;;25.10;;
58208;SDS011;44006;52.028;4.696;2022-12-18T09:18:11;47.17;;;24.23;;
58208;SDS011;44006;52.028;4.696;2022-12-18T09:20:37;47.10;;;24.67;;
58208;SDS011;44006;52.028;4.696;2022-12-18T09:23:02;46.15;;;25.17;;
58208;SDS011;44006;52.028;4.696;2022-12-18T09:25:29;51.05;;;24.02;;
58208;SDS011;44006;52.028;4.696;2022-12-18T09:27:58;47.33;;;24.15;;
58208;SDS011;44006;52.028;4.696;2022-12-18T09:30:23;49.38;;;23.95;;
58208;SDS011;44006;52.028;4.696;2022-12-18T09:32:48;52.08;;;24.65;;
58208;SDS011;44006;52.028;4.696;2022-12-18T09:35:14;46.75;;;23.90;;
58208;SDS011;44006;52.028;4.696;2022-12-18T09:37:39;47.38;;;23.55;;
58208;SDS011;44006;52.028;4.696;2022-12-18T09:40:04;46.10;;;23.58;;
58208;SDS011;44006;52.028;4.696;2022-12-18T09:42:30;49.15;;;25.05;;
58208;SDS011;44006;52.028;4.696;2022-12-18T09:44:55;46.85;;;23.33;;
58208;SDS011;44006;52.028;4.696;2022-12-18T09:47:25;44.20;;;23.33;;
58208;SDS011;44006;52.028;4.696;2022-12-18T09:49:53;49.38;;;23.90;;
58208;SDS011;44006;52.028;4.696;2022-12-18T09:52:23;45.22;;;23.30;;
58208;SDS011;44006;52.028;4.696;2022-12-18T09:55:02;44.97;;;23.38;;
58208;SDS011;44006;52.028;4.696;2022-12-18T09:57:29;46.38;;;23.30;;
58208;SDS011;44006;52.028;4.696;2022-12-18T09:59:56;47.88;;;23.55;;
58208;SDS011;44006;52.028;4.696;2022-12-18T10:02:24;51.03;;;23.65;;
58208;SDS011;44006;52.028;4.696;2022-12-18T10:05:02;51.45;;;24.15;;
58208;SDS011;44006;52.028;4.696;2022-12-18T10:07:40;48.05;;;24.15;;
58208;SDS011;44006;52.028;4.696;2022-12-18T10:10:10;43.60;;;23.23;;
58208;SDS011;44006;52.028;4.696;2022-12-18T10:15:19;51.45;;;24.65;;
58208;SDS011;44006;52.028;4.696;2022-12-18T10:17:51;51.28;;;24.55;;
58208;SDS011;44006;52.028;4.696;2022-12-18T10:26:02;48.05;;;23.77;;
58208;SDS011;44006;52.028;4.696;2022-12-18T10:28:20;47.88;;;23.60;;
58208;SDS011;44006;52.028;4.696;2022-12-18T10:30:45;54.30;;;25.08;;
58208;SDS011;44006;52.028;4.696;2022-12-18T10:33:14;46.13;;;23.60;;
58208;SDS011;44006;52.028;4.696;2022-12-18T10:35:41;46.53;;;25.20;;
58208;SDS011;44006;52.028;4.696;2022-12-18T10:40:32;43.33;;;24.95;;
58208;SDS011;44006;52.028;4.696;2022-12-18T10:43:43;50.75;;;24.92;;
58208;SDS011;44006;52.028;4.696;2022-12-18T10:45:43;49.00;;;24.25;;
58208;SDS011;44006;52.028;4.696;2022-12-18T10:48:22;47.10;;;24.25;;
58208;SDS011;44006;52.028;4.696;2022-12-18T10:50:49;49.65;;;23.60;;
58208;SDS011;44006;52.028;4.696;2022-12-18T10:53:22;42.72;;;23.27;;
58208;SDS011;44006;52.028;4.696;2022-12-18T10:55:48;48.53;;;24.45;;
58208;SDS011;44006;52.028;4.696;2022-12-18T10:58:16;46.63;;;25.05;;
58208;SDS011;44006;52.028;4.696;2022-12-18T11:00:45;48.38;;;25.35;;
58208;SDS011;44006;52.028;4.696;2022-12-18T11:03:30;47.10;;;23.98;;
58208;SDS011;44006;52.028;4.696;2022-12-18T11:06:03;49.65;;;24.23;;
58208;SDS011;44006;52.028;4.696;2022-12-18T11:08:29;52.38;;;24.50;;
58208;SDS011;44006;52.028;4.696;2022-12-18T11:10:54;48.88;;;23.90;;
58208;SDS011;44006;52.028;4.696;2022-12-18T11:13:21;49.25;;;25.85;;
58208;SDS011;44006;52.028;4.696;2022-12-18T11:15:47;49.38;;;25.15;;
58208;SDS011;44006;52.028;4.696;2022-12-18T11:18:27;50.10;;;24.67;;
58208;SDS011;44006;52.028;4.696;2022-12-18T11:20:54;46.67;;;24.98;;
58208;SDS011;44006;52.028;4.696;2022-12-18T11:23:20;46.22;;;24.70;;
58208;SDS011;44006;52.028;4.696;2022-12-18T11:25:51;44.72;;;24.52;;
58208;SDS011;44006;52.028;4.696;2022-12-18T11:33:40;45.28;;;25.13;;
58208;SDS011;44006;52.028;4.696;2022-12-18T11:36:07;50.92;;;25.00;;
58208;SDS011;44006;52.028;4.696;2022-12-18T11:38:35;48.35;;;24.05;;
58208;SDS011;44006;52.028;4.696;2022-12-18T11:43:48;50.22;;;24.50;;
58208;SDS011;44006;52.028;4.696;2022-12-18T11:46:17;51.33;;;24.00;;
58208;SDS011;44006;52.028;4.696;2022-12-18T11:49:19;45.47;;;24.55;;
58208;SDS011;44006;52.028;4.696;2022-12-18T11:51:37;44.20;;;24.40;;
58208;SDS011;44006;52.028;4.696;2022-12-18T11:54:13;45.30;;;24.10;;
58208;SDS011;44006;52.028;4.696;2022-12-18T11:56:49;51.17;;;24.95;;
58208;SDS011;44006;52.028;4.696;2022-12-18T12:01:51;44.90;;;23.88;;
58208;SDS011;44006;52.028;4.696;2022-12-18T12:10:07;47.35;;;23.73;;
58208;SDS011;44006;52.028;4.696;2022-12-18T12:20:05;44.45;;;25.10;;
58208;SDS011;44006;52.028;4.696;2022-12-18T12:22:49;50.47;;;25.95;;
58208;SDS011;44006;52.028;4.696;2022-12-18T12:25:26;43.03;;;23.83;;
58208;SDS011;44006;52.028;4.696;2022-12-18T12:30:30;50.58;;;25.00;;
58208;SDS011;44006;52.028;4.696;2022-12-18T12:35:29;51.60;;;25.15;;
58208;SDS011;44006;52.028;4.696;2022-12-18T12:40:43;49.90;;;24.38;;
58208;SDS011;44006;52.028;4.696;2022-12-18T12:43:15;45.00;;;24.45;;
58208;SDS011;44006;52.028;4.696;2022-12-18T12:45:55;49.85;;;24.45;;
58208;SDS011;44006;52.028;4.696;2022-12-18T12:50:57;47.15;;;24.52;;
58208;SDS011;44006;52.028;4.696;2022-12-18T12:53:26;45.42;;;24.45;;
58208;SDS011;44006;52.028;4.696;2022-12-18T12:55:52;50.72;;;25.70;;
58208;SDS011;44006;52.028;4.696;2022-12-18T13:00:55;54.22;;;25.25;;
58208;SDS011;44006;52.028;4.696;2022-12-18T13:06:03;44.05;;;23.67;;
58208;SDS011;44006;52.028;4.696;2022-12-18T13:08:31;47.60;;;25.63;;
58208;SDS011;44006;52.028;4.696;2022-12-18T13:10:57;49.13;;;25.58;;
58208;SDS011;44006;52.028;4.696;2022-12-18T13:13:52;42.42;;;24.15;;
58208;SDS011;44006;52.028;4.696;2022-12-18T13:16:18;52.33;;;24.55;;
58208;SDS011;44006;52.028;4.696;2022-12-18T13:18:48;43.85;;;24.58;;
58208;SDS011;44006;52.028;4.696;2022-12-18T13:21:25;46.13;;;25.48;;
58208;SDS011;44006;52.028;4.696;2022-12-18T13:23:52;47.78;;;24.98;;
58208;SDS011;44006;52.028;4.696;2022-12-18T13:31:11;47.58;;;25.35;;
58208;SDS011;44006;52.028;4.696;2022-12-18T13:33:38;48.97;;;25.02;;
58208;SDS011;44006;52.028;4.696;2022-12-18T13:38:47;45.63;;;25.00;;
58208;SDS011;44006;52.028;4.696;2022-12-18T13:41:32;49.78;;;25.02;;
58208;SDS011;44006;52.028;4.696;2022-12-18T13:44:22;48.72;;;25.33;;
58208;SDS011;44006;52.028;4.696;2022-12-18T13:46:44;52.25;;;25.55;;
58208;SDS011;44006;52.028;4.696;2022-12-18T13:51:42;49.65;;;26.95;;
58208;SDS011;44006;52.028;4.696;2022-12-18T13:54:41;52.78;;;25.42;;
58208;SDS011;44006;52.028;4.696;2022-12-18T13:56:59;50.08;;;25.88;;
58208;SDS011;44006;52.028;4.696;2022-12-18T13:59:26;47.88;;;24.80;;
58208;SDS011;44006;52.028;4.696;2022-12-18T14:01:55;50.40;;;26.25;;
58208;SDS011;44006;52.028;4.696;2022-12-18T14:04:25;48.67;;;25.85;;
58208;SDS011;44006;52.028;4.696;2022-12-18T14:06:52;46.45;;;25.45;;
58208;SDS011;44006;52.028;4.696;2022-12-18T14:09:19;50.33;;;25.90;;
58208;SDS011;44006;52.028;4.696;2022-12-18T14:11:47;47.72;;;24.90;;
58208;SDS011;44006;52.028;4.696;2022-12-18T14:14:14;54.65;;;27.15;;
58208;SDS011;44006;52.028;4.696;2022-12-18T14:16:40;46.55;;;25.40;;
58208;SDS011;44006;52.028;4.696;2022-12-18T14:19:08;53.95;;;27.10;;
58208;SDS011;44006;52.028;4.696;2022-12-18T14:21:34;49.90;;;26.48;;
58208;SDS011;44006;52.028;4.696;2022-12-18T14:24:12;52.38;;;25.58;;
58208;SDS011;44006;52.028;4.696;2022-12-18T14:26:39;57.05;;;26.75;;
58208;SDS011;44006;52.028;4.696;2022-12-18T14:34:32;52.55;;;26.73;;
58208;SDS011;44006;52.028;4.696;2022-12-18T14:36:57;49.75;;;26.50;;
58208;SDS011;44006;52.028;4.696;2022-12-18T14:39:22;49.33;;;26.80;;
58208;SDS011;44006;52.028;4.696;2022-12-18T14:41:50;52.00;;;26.33;;
58208;SDS011;44006;52.028;4.696;2022-12-18T14:44:15;50.28;;;26.75;;
58208;SDS011;44006;52.028;4.696;2022-12-18T14:46:44;51.92;;;26.85;;
58208;SDS011;44006;52.028;4.696;2022-12-18T14:51:55;52.20;;;25.20;;
58208;SDS011;44006;52.028;4.696;2022-12-18T14:54:21;47.67;;;25.65;;
58208;SDS011;44006;52.028;4.696;2022-12-18T14:59:31;49.85;;;25.88;;
58208;SDS011;44006;52.028;4.696;2022-12-18T15:04:29;49.28;;;25.17;;
58208;SDS011;44006;52.028;4.696;2022-12-18T15:09:35;51.20;;;26.63;;
58208;SDS011;44006;52.028;4.696;2022-12-18T15:12:01;48.15;;;25.73;;
58208;SDS011;44006;52.028;4.696;2022-12-18T15:16:54;48.95;;;25.35;;
58208;SDS011;44006;52.028;4.696;2022-12-18T15:19:21;50.13;;;26.02;;
58208;SDS011;44006;52.028;4.696;2022-12-18T15:21:47;54.38;;;26.42;;
58208;SDS011;44006;52.028;4.696;2022-12-18T15:24:20;50.00;;;25.92;;
58208;SDS011;44006;52.028;4.696;2022-12-18T15:26:48;47.95;;;24.83;;
58208;SDS011;44006;52.028;4.696;2022-12-18T15:29:20;46.95;;;26.23;;
58208;SDS011;44006;52.028;4.696;2022-12-18T15:31:57;44.80;;;25.05;;
58208;SDS011;44006;52.028;4.696;2022-12-18T15:34:23;47.35;;;25.35;;
58208;SDS011;44006;52.028;4.696;2022-12-18T15:36:49;44.50;;;24.40;;
58208;SDS011;44006;52.028;4.696;2022-12-18T15:39:15;55.00;;;25.95;;
58208;SDS011;44006;52.028;4.696;2022-12-18T15:41:40;46.60;;;24.00;;
58208;SDS011;44006;52.028;4.696;2022-12-18T15:44:25;49.83;;;24.98;;
58208;SDS011;44006;52.028;4.696;2022-12-18T15:46:51;45.08;;;24.42;;
58208;SDS011;44006;52.028;4.696;2022-12-18T15:49:16;43.38;;;24.77;;
58208;SDS011;44006;52.028;4.696;2022-12-18T15:51:41;47.47;;;24.17;;
58208;SDS011;44006;52.028;4.696;2022-12-18T15:54:09;47.70;;;24.25;;